Vinings, Georgia
Current Conditions -  °F | °C
As of 1:58 PM on Monday 20 Oct 2014 (Local Time) from KMGE Reporting Station
Broken Clouds Broken Clouds  
Wind Chill: 21°   Ceiling: 25000
Heat Index: 21°   Visibility: 10mi
Dew Point: 10°   Wind: 6mph
Humidity: 49%   Direction: NA
Pressure: 30.06"   Gusts: NA
Location:  33.87°N, 84.47°W
Report Text: KMGE 201758Z VRB05KT 10SM SCT045 BKN250 21/10 A3006 RMK AO2A SLP177 T02120102 10212 20076 57024 $
Loading
Personal Weather Stations






























Interactive Weather Map
Tropical Storm Tracking
New forecast layout! Learn more

10-Day Weather Forecast

Advertisements
Track Severe Weather on mobile